createdAt,value
2023-04-18T00:01:49.061Z,36.50
2023-04-18T00:04:18.244Z,36.43
2023-04-18T00:06:47.540Z,36.02
2023-04-18T00:09:14.369Z,41.21
2023-04-18T00:11:41.351Z,40.08
2023-04-18T00:16:36.334Z,37.82
2023-04-18T00:19:05.202Z,37.60
2023-04-18T00:21:32.679Z,37.83
2023-04-18T00:23:59.366Z,38.01
2023-04-18T00:26:27.268Z,37.38
2023-04-18T00:28:54.249Z,37.76
2023-04-18T00:31:21.031Z,38.74
2023-04-18T00:33:48.094Z,41.40
2023-04-18T00:36:15.713Z,39.60
2023-04-18T00:38:42.544Z,39.44
2023-04-18T00:41:09.455Z,41.17
2023-04-18T00:43:37.228Z,41.28
2023-04-18T00:46:04.386Z,41.18
2023-04-18T00:48:31.558Z,38.08
2023-04-18T00:51:00.336Z,40.02
2023-04-18T00:53:28.182Z,39.24
2023-04-18T00:55:55.330Z,40.71
2023-04-18T00:58:22.477Z,41.44
2023-04-18T01:00:49.855Z,41.51
2023-04-18T01:03:18.531Z,41.07
2023-04-18T01:05:46.881Z,40.81
2023-04-18T01:08:14.280Z,42.17
2023-04-18T01:10:41.435Z,41.39
2023-04-18T01:13:16.055Z,40.57
2023-04-18T01:15:44.458Z,38.58
2023-04-18T01:18:13.352Z,40.43
2023-04-18T01:20:45.848Z,39.70
2023-04-18T01:23:13.361Z,38.46
2023-04-18T01:25:40.477Z,38.59
2023-04-18T01:28:07.511Z,41.23
2023-04-18T01:30:35.072Z,41.55
2023-04-18T01:33:03.501Z,41.60
2023-04-18T01:35:31.081Z,39.89
2023-04-18T01:37:58.412Z,40.29
2023-04-18T01:40:27.522Z,38.76
2023-04-18T01:42:54.446Z,38.84
2023-04-18T01:45:22.444Z,40.73
2023-04-18T01:47:50.101Z,42.28
2023-04-18T01:50:16.912Z,41.08
2023-04-18T01:52:43.749Z,41.35
2023-04-18T01:55:10.746Z,39.59
2023-04-18T01:57:38.297Z,40.71
2023-04-18T02:00:06.396Z,41.06
2023-04-18T02:02:41.379Z,42.86
2023-04-18T02:05:09.061Z,41.48
2023-04-18T02:07:38.716Z,44.99
2023-04-18T02:10:06.347Z,41.75
2023-04-18T02:12:34.705Z,42.40
2023-04-18T02:15:01.874Z,42.39
2023-04-18T02:17:28.972Z,40.54
2023-04-18T02:19:55.887Z,42.63
2023-04-18T02:22:22.783Z,39.65
2023-04-18T02:24:50.404Z,39.57
2023-04-18T02:27:18.864Z,39.62
2023-04-18T02:29:45.947Z,40.77
2023-04-18T02:32:12.707Z,41.02
2023-04-18T02:34:39.522Z,40.79
2023-04-18T02:37:06.556Z,40.33
2023-04-18T02:39:33.300Z,39.87
2023-04-18T02:42:01.598Z,40.86
2023-04-18T02:44:28.473Z,40.57
2023-04-18T02:46:55.210Z,42.33
2023-04-18T02:49:22.166Z,41.00
2023-04-18T02:51:49.218Z,43.61
2023-04-18T02:54:16.643Z,40.20
2023-04-18T02:56:54.427Z,42.07
2023-04-18T02:59:44.011Z,41.53
2023-04-18T03:02:24.775Z,43.94
2023-04-18T03:04:56.614Z,42.25
2023-04-18T03:07:23.950Z,43.16
2023-04-18T03:09:52.224Z,41.10
2023-04-18T03:12:24.008Z,42.03
2023-04-18T03:14:51.779Z,41.60
2023-04-18T03:17:20.208Z,41.07
2023-04-18T03:19:49.327Z,41.14
2023-04-18T03:22:19.366Z,40.43
2023-04-18T03:24:53.145Z,41.01
2023-04-18T03:27:21.059Z,41.68
2023-04-18T03:29:48.292Z,41.23
2023-04-18T03:32:15.589Z,41.68
2023-04-18T03:34:42.299Z,44.60
2023-04-18T03:37:09.849Z,41.49
2023-04-18T03:39:42.918Z,41.14
2023-04-18T03:42:09.907Z,40.89
2023-04-18T03:44:37.247Z,42.76
2023-04-18T03:47:04.695Z,42.03
2023-04-18T03:49:33.976Z,40.54
2023-04-18T03:52:03.725Z,42.01
2023-04-18T03:54:37.408Z,41.97
2023-04-18T03:57:04.759Z,43.90
2023-04-18T03:59:32.949Z,41.73
2023-04-18T04:02:00.335Z,41.57
2023-04-18T04:04:27.362Z,40.57
2023-04-18T04:06:54.435Z,41.64
2023-04-18T04:09:21.343Z,42.71
2023-04-18T04:11:50.488Z,43.37
2023-04-18T04:14:17.230Z,44.34
2023-04-18T04:16:46.208Z,42.31
2023-04-18T04:19:16.126Z,43.44
2023-04-18T04:21:54.839Z,43.70
2023-04-18T04:24:22.776Z,45.93
2023-04-18T04:26:51.516Z,44.86
2023-04-18T04:29:23.876Z,46.06
2023-04-18T04:31:51.835Z,45.81
2023-04-18T04:34:29.698Z,47.24
2023-04-18T04:36:57.432Z,44.13
2023-04-18T04:39:26.307Z,45.11
2023-04-18T04:42:12.234Z,44.33
2023-04-18T04:44:49.199Z,44.33
2023-04-18T04:47:16.671Z,45.66
2023-04-18T04:49:44.070Z,46.06
2023-04-18T04:52:10.936Z,44.65
2023-04-18T04:54:38.128Z,47.28
2023-04-18T04:57:07.099Z,44.99
2023-04-18T04:59:33.938Z,45.53
2023-04-18T05:02:00.897Z,46.57
2023-04-18T05:04:27.888Z,46.00
2023-04-18T05:06:54.904Z,45.97
2023-04-18T05:09:22.075Z,45.66
2023-04-18T05:11:49.574Z,45.73
2023-04-18T05:14:17.703Z,48.07
2023-04-18T05:16:44.589Z,47.26
2023-04-18T05:19:11.380Z,43.78
2023-04-18T05:21:38.357Z,45.72
2023-04-18T05:24:05.728Z,49.56
2023-04-18T05:26:32.535Z,46.62
2023-04-18T05:28:59.236Z,47.20
2023-04-18T05:31:26.839Z,46.65
2023-04-18T05:33:53.603Z,45.73
2023-04-18T05:36:20.891Z,47.91
2023-04-18T05:38:47.611Z,47.41
2023-04-18T05:41:14.454Z,47.48
2023-04-18T05:43:42.922Z,45.37
2023-04-18T05:46:09.846Z,48.52
2023-04-18T05:48:37.578Z,44.78
2023-04-18T05:51:06.121Z,47.10
2023-04-18T05:53:32.874Z,46.90
2023-04-18T05:55:59.963Z,45.87
2023-04-18T05:58:28.787Z,46.40
2023-04-18T06:00:56.317Z,45.88
2023-04-18T06:03:23.935Z,47.14
2023-04-18T06:05:51.358Z,45.81
2023-04-18T06:08:18.221Z,48.03
2023-04-18T06:10:44.913Z,47.30
2023-04-18T06:13:11.957Z,45.85
2023-04-18T06:15:39.220Z,46.82
2023-04-18T06:18:06.660Z,47.24
2023-04-18T06:20:33.476Z,46.50
2023-04-18T06:23:00.249Z,44.92
2023-04-18T06:25:27.440Z,43.22
2023-04-18T06:27:54.271Z,46.17
2023-04-18T06:30:22.987Z,45.57
2023-04-18T06:32:49.900Z,44.56
2023-04-18T06:35:16.934Z,44.76
2023-04-18T06:37:44.894Z,42.37
2023-04-18T06:40:12.452Z,43.99
2023-04-18T06:42:39.562Z,43.66
2023-04-18T06:45:08.214Z,41.97
2023-04-18T06:47:35.058Z,43.86
2023-04-18T06:50:02.090Z,44.55
2023-04-18T06:52:28.897Z,42.69
2023-04-18T06:54:55.620Z,39.84
2023-04-18T06:57:23.264Z,41.28
2023-04-18T06:59:49.931Z,41.93
2023-04-18T07:02:17.138Z,39.24
2023-04-18T07:04:44.095Z,41.75
2023-04-18T07:07:10.959Z,41.37
2023-04-18T07:09:38.417Z,40.02
2023-04-18T07:12:05.610Z,41.27
2023-04-18T07:14:34.087Z,43.18
2023-04-18T07:17:01.858Z,43.80
2023-04-18T07:19:28.709Z,42.32
2023-04-18T07:21:56.071Z,45.33
2023-04-18T07:24:23.692Z,41.21
2023-04-18T07:26:55.025Z,44.74
2023-04-18T07:29:22.228Z,41.35
2023-04-18T07:31:49.448Z,40.36
2023-04-18T07:34:16.269Z,41.50
2023-04-18T07:36:43.079Z,41.54
2023-04-18T07:39:10.838Z,39.85
2023-04-18T07:41:38.462Z,42.17
2023-04-18T07:44:05.408Z,38.02
2023-04-18T07:46:33.949Z,39.92
2023-04-18T07:49:02.409Z,37.62
2023-04-18T07:51:31.996Z,41.32
2023-04-18T07:53:59.617Z,38.21
2023-04-18T07:56:28.530Z,37.25
2023-04-18T07:58:55.710Z,40.51
2023-04-18T08:01:24.882Z,36.65
2023-04-18T08:03:53.979Z,39.04
2023-04-18T08:06:21.457Z,37.07
2023-04-18T08:08:48.698Z,35.63
2023-04-18T08:11:15.473Z,37.21
2023-04-18T08:13:42.247Z,37.71
2023-04-18T08:16:09.977Z,38.77
2023-04-18T08:18:37.758Z,39.10
2023-04-18T08:21:04.894Z,38.62
2023-04-18T08:23:31.607Z,41.14
2023-04-18T08:25:58.403Z,38.33
2023-04-18T08:28:25.705Z,38.88
2023-04-18T08:30:55.254Z,37.39
2023-04-18T08:33:24.221Z,38.32
2023-04-18T08:35:51.683Z,37.88
2023-04-18T08:38:19.446Z,38.53
2023-04-18T08:40:47.225Z,40.06
2023-04-18T08:43:15.286Z,42.53
2023-04-18T08:45:43.582Z,41.20
2023-04-18T08:48:17.917Z,39.29
2023-04-18T08:50:45.396Z,39.51
2023-04-18T08:53:12.285Z,39.37
2023-04-18T08:55:40.544Z,39.72
2023-04-18T08:58:08.154Z,36.52
2023-04-18T09:00:35.277Z,36.67
2023-04-18T09:03:03.246Z,36.36
2023-04-18T09:05:30.165Z,38.03
2023-04-18T09:07:56.931Z,35.63
2023-04-18T09:10:29.075Z,36.36
2023-04-18T09:12:57.898Z,36.89
2023-04-18T09:15:29.614Z,35.40
2023-04-18T09:17:58.842Z,36.12
2023-04-18T09:20:35.864Z,36.12
2023-04-18T09:23:11.352Z,36.99
2023-04-18T09:25:48.306Z,37.95
2023-04-18T09:28:29.285Z,35.94
2023-04-18T09:30:58.159Z,38.83
2023-04-18T09:33:32.590Z,36.09
2023-04-18T09:36:21.552Z,38.93
2023-04-18T09:38:50.195Z,36.36
2023-04-18T09:41:20.074Z,38.19
2023-04-18T09:43:48.724Z,37.30
2023-04-18T09:46:17.726Z,36.65
2023-04-18T09:48:44.833Z,36.23
2023-04-18T09:51:15.737Z,36.70
2023-04-18T09:53:45.053Z,37.66
2023-04-18T09:56:26.249Z,38.75
2023-04-18T09:58:57.288Z,38.98
2023-04-18T10:01:28.332Z,40.60
2023-04-18T10:03:57.383Z,37.13
2023-04-18T10:06:27.434Z,38.15
2023-04-18T10:08:55.619Z,37.85
2023-04-18T10:11:24.338Z,38.52
2023-04-18T10:13:55.913Z,39.86
2023-04-18T10:16:23.110Z,40.32
2023-04-18T10:18:51.370Z,40.95
2023-04-18T10:21:18.110Z,39.91
2023-04-18T10:23:49.208Z,36.81
2023-04-18T10:26:16.339Z,37.09
2023-04-18T10:28:55.641Z,36.54
2023-04-18T10:31:27.024Z,38.11
2023-04-18T10:34:04.669Z,38.95
2023-04-18T10:36:33.164Z,38.91
2023-04-18T10:39:21.167Z,38.31
2023-04-18T10:41:51.643Z,37.80
2023-04-18T10:44:25.825Z,37.26
2023-04-18T10:46:52.712Z,38.39
2023-04-18T10:49:35.433Z,35.48
2023-04-18T10:52:06.013Z,40.37
2023-04-18T10:54:47.201Z,37.42
2023-04-18T10:57:15.260Z,35.06
2023-04-18T10:59:44.466Z,38.63
2023-04-18T11:02:24.726Z,39.32
2023-04-18T11:04:57.140Z,36.63
2023-04-18T11:07:48.733Z,36.19
2023-04-18T11:10:23.791Z,34.81
2023-04-18T11:12:52.180Z,36.57
2023-04-18T11:15:22.185Z,36.83
2023-04-18T11:17:57.574Z,37.75
2023-04-18T11:20:25.964Z,39.72
2023-04-18T11:23:00.528Z,41.58
2023-04-18T11:25:32.648Z,40.17
2023-04-18T11:28:00.978Z,38.09
2023-04-18T11:30:31.362Z,36.23
2023-04-18T11:32:58.163Z,36.49
2023-04-18T11:35:25.111Z,36.89
2023-04-18T11:37:52.141Z,37.03
2023-04-18T11:40:18.925Z,37.25
2023-04-18T11:42:45.769Z,36.03
2023-04-18T11:45:14.177Z,34.46
2023-04-18T11:47:43.265Z,35.66
2023-04-18T11:50:13.062Z,37.78
2023-04-18T11:52:42.674Z,36.04
2023-04-18T11:55:17.512Z,36.32
2023-04-18T11:57:55.111Z,35.36
2023-04-18T12:00:40.165Z,37.63
2023-04-18T12:03:15.737Z,37.37
2023-04-18T12:05:43.250Z,36.37
2023-04-18T12:08:13.998Z,34.27
2023-04-18T12:10:52.288Z,32.99
2023-04-18T12:13:25.505Z,36.79
2023-04-18T12:15:52.714Z,36.26
2023-04-18T12:18:20.261Z,36.01
2023-04-18T12:20:58.624Z,36.67
2023-04-18T12:23:40.469Z,37.85
2023-04-18T12:26:22.932Z,37.16
2023-04-18T12:28:51.593Z,37.11
2023-04-18T12:31:18.361Z,38.91
2023-04-18T12:33:45.203Z,38.78
2023-04-18T12:36:12.959Z,38.31
2023-04-18T12:38:39.708Z,38.20
2023-04-18T12:41:06.922Z,39.07
2023-04-18T12:43:33.629Z,38.34
2023-04-18T12:46:00.623Z,36.94
2023-04-18T12:48:28.249Z,37.88
2023-04-18T12:50:55.648Z,34.05
2023-04-18T12:53:22.401Z,38.58
2023-04-18T12:55:49.298Z,37.24
2023-04-18T12:58:18.695Z,38.82
2023-04-18T13:00:46.251Z,35.67
2023-04-18T13:03:13.749Z,34.67
2023-04-18T13:05:42.213Z,36.18
2023-04-18T13:08:16.820Z,35.86
2023-04-18T13:10:46.217Z,36.13
2023-04-18T13:13:13.554Z,35.91
2023-04-18T13:15:40.924Z,34.23
2023-04-18T13:18:08.013Z,35.23
2023-04-18T13:20:35.511Z,35.52
2023-04-18T13:23:02.999Z,35.20
2023-04-18T13:25:29.829Z,36.19
2023-04-18T13:27:58.661Z,35.99
2023-04-18T13:30:26.756Z,36.73
2023-04-18T13:32:55.053Z,35.37
2023-04-18T13:35:22.866Z,36.55
2023-04-18T13:37:49.651Z,35.06
2023-04-18T13:40:16.429Z,37.46
2023-04-18T13:42:43.496Z,37.03
2023-04-18T13:45:11.476Z,36.68
2023-04-18T13:47:38.385Z,38.40
2023-04-18T13:50:06.181Z,37.66
2023-04-18T13:52:33.343Z,36.78
2023-04-18T13:55:00.080Z,36.05
2023-04-18T13:57:28.819Z,37.46
2023-04-18T13:59:56.404Z,39.05
2023-04-18T14:02:23.340Z,36.34
2023-04-18T14:04:52.189Z,38.88
2023-04-18T14:07:19.037Z,40.60
2023-04-18T14:09:48.199Z,40.81
2023-04-18T14:12:15.039Z,41.92
2023-04-18T14:14:43.107Z,40.35
2023-04-18T14:17:09.859Z,40.29
2023-04-18T14:19:36.724Z,38.11
2023-04-18T14:22:03.544Z,39.17
2023-04-18T14:24:30.259Z,37.70
2023-04-18T14:26:57.178Z,40.41
2023-04-18T14:29:23.920Z,37.85
2023-04-18T14:31:50.733Z,38.55
2023-04-18T14:34:17.485Z,38.31
2023-04-18T14:36:44.771Z,39.48
2023-04-18T14:39:12.135Z,38.38
2023-04-18T14:41:39.005Z,37.69
2023-04-18T14:44:05.864Z,38.97
2023-04-18T14:46:32.660Z,37.56
2023-04-18T14:49:00.033Z,37.33
2023-04-18T14:51:28.732Z,38.40
2023-04-18T14:53:55.830Z,37.22
2023-04-18T14:56:24.311Z,38.73
2023-04-18T14:58:51.110Z,40.31
2023-04-18T15:01:17.852Z,36.43
2023-04-18T15:03:45.516Z,38.61
2023-04-18T15:06:13.758Z,37.94
2023-04-18T15:08:40.867Z,36.26
2023-04-18T15:11:08.348Z,36.89
2023-04-18T15:13:35.386Z,38.97
2023-04-18T15:16:02.929Z,38.38
2023-04-18T15:18:30.044Z,37.73
2023-04-18T15:20:59.813Z,37.42
2023-04-18T15:23:27.826Z,38.04
2023-04-18T15:25:54.698Z,39.29
2023-04-18T15:28:21.527Z,35.67
2023-04-18T15:30:48.308Z,37.51
2023-04-18T15:33:15.942Z,35.79
2023-04-18T15:35:42.880Z,37.03
2023-04-18T15:38:09.644Z,39.61
2023-04-18T15:40:36.635Z,41.10
2023-04-18T15:43:04.156Z,37.68
2023-04-18T15:45:31.316Z,36.88
2023-04-18T15:47:59.236Z,35.95
2023-04-18T15:50:26.344Z,37.92
2023-04-18T15:52:53.266Z,36.42
2023-04-18T15:55:20.040Z,35.50
2023-04-18T15:57:47.048Z,37.59
2023-04-18T16:00:20.904Z,38.33
2023-04-18T16:02:47.797Z,36.84
2023-04-18T16:05:15.577Z,37.14
2023-04-18T16:07:43.040Z,39.01
2023-04-18T16:10:11.248Z,40.46
2023-04-18T16:12:39.558Z,39.00
2023-04-18T16:15:08.709Z,39.42
2023-04-18T16:17:39.019Z,38.58
2023-04-18T16:20:08.520Z,36.81
2023-04-18T16:22:35.467Z,35.55
2023-04-18T16:25:02.339Z,38.54
2023-04-18T16:27:30.636Z,36.90
2023-04-18T16:29:58.284Z,38.91
2023-04-18T16:32:25.326Z,34.83
2023-04-18T16:34:52.248Z,35.56
2023-04-18T16:37:19.064Z,37.39
2023-04-18T16:39:47.289Z,39.85
2023-04-18T16:42:15.856Z,39.32
2023-04-18T16:44:44.831Z,36.84
2023-04-18T16:47:11.684Z,37.47
2023-04-18T16:49:39.203Z,38.00
2023-04-18T16:52:06.021Z,37.13
2023-04-18T16:54:32.802Z,36.98
2023-04-18T16:57:00.000Z,37.21
2023-04-18T16:59:26.889Z,40.02
2023-04-18T17:01:53.782Z,37.51
2023-04-18T17:04:21.404Z,39.12
2023-04-18T17:06:48.600Z,40.54
2023-04-18T17:09:16.731Z,37.64
2023-04-18T17:11:43.927Z,39.26
2023-04-18T17:14:11.561Z,37.72
2023-04-18T17:16:40.609Z,40.62
2023-04-18T17:19:08.385Z,40.89
2023-04-18T17:21:35.977Z,36.14
2023-04-18T17:24:03.980Z,35.23
2023-04-18T17:26:31.595Z,38.64
2023-04-18T17:29:00.130Z,37.41
2023-04-18T17:31:27.404Z,38.48
2023-04-18T17:33:54.797Z,37.93
2023-04-18T17:36:21.629Z,36.87
2023-04-18T17:38:51.066Z,37.41
2023-04-18T17:41:20.097Z,36.13
2023-04-18T17:43:48.129Z,35.99
2023-04-18T17:46:15.643Z,37.51
2023-04-18T17:48:42.716Z,36.94
2023-04-18T17:51:10.053Z,39.33
2023-04-18T17:53:36.777Z,38.53
2023-04-18T17:56:03.852Z,39.13
2023-04-18T17:58:31.523Z,40.07
2023-04-18T18:00:58.387Z,40.78
2023-04-18T18:03:25.947Z,41.34
2023-04-18T18:05:55.212Z,38.40
2023-04-18T18:08:22.710Z,36.09
2023-04-18T18:10:49.927Z,38.09
2023-04-18T18:13:17.146Z,39.48
2023-04-18T18:15:44.404Z,39.23
2023-04-18T18:18:11.479Z,36.72
2023-04-18T18:20:41.001Z,36.94
2023-04-18T18:23:07.735Z,38.01
2023-04-18T18:25:37.074Z,39.06
2023-04-18T18:28:04.136Z,37.86
2023-04-18T18:30:30.986Z,38.43
2023-04-18T18:32:58.028Z,38.33
2023-04-18T18:35:24.901Z,37.00
2023-04-18T18:37:51.771Z,38.17
2023-04-18T18:40:18.623Z,37.74
2023-04-18T18:42:46.204Z,40.18
2023-04-18T18:45:12.975Z,38.19
2023-04-18T18:47:40.389Z,36.77
2023-04-18T18:50:07.760Z,37.09
2023-04-18T18:52:34.602Z,37.95
2023-04-18T18:55:01.648Z,39.17
2023-04-18T18:57:28.519Z,37.27
2023-04-18T18:59:56.091Z,37.18
2023-04-18T19:02:23.171Z,37.03
2023-04-18T19:04:50.276Z,38.62
2023-04-18T19:07:17.536Z,39.15
2023-04-18T19:09:46.012Z,39.04
2023-04-18T19:12:13.016Z,39.12
2023-04-18T19:14:41.884Z,39.94
2023-04-18T19:17:09.234Z,40.36
2023-04-18T19:19:36.319Z,38.78
2023-04-18T19:22:03.060Z,39.81
2023-04-18T19:24:31.981Z,39.91
2023-04-18T19:27:00.425Z,41.12
2023-04-18T19:29:27.071Z,38.03
2023-04-18T19:31:54.371Z,41.97
2023-04-18T19:34:22.291Z,41.17
2023-04-18T19:36:49.241Z,39.79
2023-04-18T19:39:18.215Z,38.00
2023-04-18T19:41:46.644Z,40.83
2023-04-18T19:44:13.359Z,38.62
2023-04-18T19:46:40.585Z,40.88
2023-04-18T19:49:07.477Z,39.70
2023-04-18T19:51:34.275Z,39.86
2023-04-18T19:54:02.631Z,41.17
2023-04-18T19:56:29.364Z,39.68
2023-04-18T19:58:57.889Z,39.41
2023-04-18T20:01:27.695Z,39.09
2023-04-18T20:03:57.538Z,40.06
2023-04-18T20:06:26.631Z,39.40
2023-04-18T20:08:56.316Z,41.93
2023-04-18T20:11:23.079Z,40.70
2023-04-18T20:13:52.178Z,39.12
2023-04-18T20:16:18.947Z,38.25
2023-04-18T20:18:47.536Z,41.17
2023-04-18T20:21:14.365Z,39.35
2023-04-18T20:23:42.596Z,40.64
2023-04-18T20:26:09.451Z,39.96
2023-04-18T20:28:37.875Z,39.40
2023-04-18T20:31:04.898Z,38.68
2023-04-18T20:33:33.129Z,42.28
2023-04-18T20:36:00.569Z,40.29
2023-04-18T20:38:29.854Z,40.73
2023-04-18T20:40:58.812Z,40.91
2023-04-18T20:43:26.822Z,40.91
2023-04-18T20:45:57.772Z,39.74
2023-04-18T20:48:24.757Z,42.79
2023-04-18T20:50:51.655Z,39.00
2023-04-18T20:53:22.526Z,43.48
2023-04-18T20:55:49.372Z,39.42
2023-04-18T20:58:16.172Z,41.11
2023-04-18T21:00:44.651Z,38.82
2023-04-18T21:03:16.217Z,38.13
2023-04-18T21:05:44.422Z,40.90
2023-04-18T21:08:11.431Z,41.19
2023-04-18T21:10:38.267Z,41.18
2023-04-18T21:13:05.272Z,39.58
2023-04-18T21:15:32.651Z,40.91
2023-04-18T21:17:59.655Z,38.23
2023-04-18T21:20:26.890Z,38.82
2023-04-18T21:22:53.590Z,37.93
2023-04-18T21:25:21.391Z,40.05
2023-04-18T21:27:50.457Z,38.79
2023-04-18T21:30:18.246Z,40.01
2023-04-18T21:32:46.598Z,39.33
2023-04-18T21:35:13.431Z,38.77
2023-04-18T21:37:40.253Z,37.33
2023-04-18T21:40:07.764Z,39.63
2023-04-18T21:42:35.520Z,39.24
2023-04-18T21:45:03.212Z,40.45
2023-04-18T21:47:30.134Z,41.24
2023-04-18T21:49:56.872Z,43.66
2023-04-18T21:52:23.597Z,39.72
2023-04-18T21:54:50.375Z,39.88
2023-04-18T21:57:17.570Z,40.79
2023-04-18T21:59:44.508Z,41.03
2023-04-18T22:02:11.549Z,37.97
2023-04-18T22:04:42.541Z,38.07
2023-04-18T22:07:09.916Z,39.31
2023-04-18T22:09:37.126Z,38.42
2023-04-18T22:12:04.726Z,41.03
2023-04-18T22:14:32.470Z,39.54
2023-04-18T22:17:01.932Z,39.52
2023-04-18T22:19:29.545Z,38.67
2023-04-18T22:21:56.865Z,39.68
2023-04-18T22:24:24.628Z,40.26
2023-04-18T22:26:51.745Z,40.53
2023-04-18T22:29:18.527Z,38.03
2023-04-18T22:31:45.511Z,39.77
2023-04-18T22:34:12.344Z,38.85
2023-04-18T22:36:39.139Z,38.94
2023-04-18T22:39:06.381Z,41.32
2023-04-18T22:41:33.455Z,40.27
2023-04-18T22:44:00.417Z,40.61
2023-04-18T22:46:27.265Z,42.51
2023-04-18T22:48:54.400Z,38.86
2023-04-18T22:51:21.189Z,41.23
2023-04-18T22:53:48.594Z,41.36
2023-04-18T22:56:16.236Z,40.01
2023-04-18T22:58:43.280Z,38.30
2023-04-18T23:01:10.137Z,38.33
2023-04-18T23:03:36.984Z,40.86
2023-04-18T23:06:03.920Z,37.84
2023-04-18T23:08:31.003Z,40.50
2023-04-18T23:10:57.930Z,38.38
2023-04-18T23:13:24.684Z,38.57
2023-04-18T23:15:51.431Z,38.88
2023-04-18T23:18:18.705Z,39.32
2023-04-18T23:20:45.967Z,38.29
2023-04-18T23:23:13.174Z,36.68
2023-04-18T23:25:39.973Z,39.09
2023-04-18T23:28:06.971Z,38.57
2023-04-18T23:30:36.876Z,38.25
2023-04-18T23:33:03.973Z,39.19
2023-04-18T23:35:31.075Z,39.24
2023-04-18T23:37:57.899Z,37.66
2023-04-18T23:40:24.815Z,38.25
2023-04-18T23:42:51.585Z,37.17
2023-04-18T23:45:18.987Z,38.22
2023-04-18T23:47:45.746Z,43.60
2023-04-18T23:50:13.254Z,39.91
2023-04-18T23:52:40.568Z,39.13
2023-04-18T23:55:07.953Z,39.32
2023-04-18T23:57:35.053Z,38.15
